createdAt,value
2023-03-31T00:01:29.588Z,99558.20
2023-03-31T00:04:05.277Z,99558.91
2023-03-31T00:06:37.545Z,99557.75
2023-03-31T00:10:21.949Z,99556.39
2023-03-31T00:12:47.771Z,99563.72
2023-03-31T00:15:13.795Z,99568.08
2023-03-31T00:17:49.102Z,99568.77
2023-03-31T00:20:14.331Z,99564.72
2023-03-31T00:21:25.686Z,99574.28
2023-03-31T00:24:01.502Z,99567.37
2023-03-31T00:26:29.959Z,99559.38
2023-03-31T00:27:41.813Z,99561.63
2023-03-31T00:30:09.657Z,99546.75
2023-03-31T00:31:29.086Z,99557.00
2023-03-31T00:33:54.045Z,99554.38
2023-03-31T00:36:25.104Z,99542.50
2023-03-31T00:38:53.327Z,99538.80
2023-03-31T00:41:20.775Z,99545.35
2023-03-31T00:45:31.085Z,99545.30
2023-03-31T00:48:11.487Z,99545.91
2023-03-31T00:50:51.967Z,99540.11
2023-03-31T00:53:38.576Z,99530.72
2023-03-31T00:56:11.825Z,99540.00
2023-03-31T00:58:44.987Z,99529.24
2023-03-31T01:01:25.140Z,99527.42
2023-03-31T01:02:35.119Z,99531.69
2023-03-31T01:05:02.118Z,99524.75
2023-03-31T01:06:15.353Z,99528.14
2023-03-31T01:09:04.495Z,99517.89
2023-03-31T01:10:15.174Z,99520.23
2023-03-31T01:12:47.561Z,99521.34
2023-03-31T01:15:14.693Z,99516.00
2023-03-31T01:17:43.012Z,99507.91
2023-03-31T01:18:54.408Z,99509.48
2023-03-31T01:22:15.850Z,99503.52
2023-03-31T01:23:41.681Z,99509.48
2023-03-31T01:26:28.694Z,99497.78
2023-03-31T01:29:28.211Z,99492.45
2023-03-31T01:32:09.264Z,99492.36
2023-03-31T01:33:25.010Z,99500.33
2023-03-31T01:36:25.455Z,99492.05
2023-03-31T01:39:41.558Z,99492.73
2023-03-31T01:42:44.033Z,99487.59
2023-03-31T01:46:56.248Z,99486.16
2023-03-31T01:49:54.836Z,99485.74
2023-03-31T01:52:27.160Z,99476.21
2023-03-31T01:57:03.816Z,99485.67
2023-03-31T01:59:57.247Z,99481.43
2023-03-31T02:02:38.877Z,99486.00
2023-03-31T02:05:25.351Z,99482.64
2023-03-31T02:06:39.674Z,99487.83
2023-03-31T02:10:34.828Z,99471.48
2023-03-31T02:13:03.464Z,99476.98
2023-03-31T02:16:01.052Z,99463.16
2023-03-31T02:18:38.303Z,99465.91
2023-03-31T02:21:09.304Z,99458.53
2023-03-31T02:23:38.157Z,99449.19
2023-03-31T02:26:19.630Z,99448.52
2023-03-31T02:28:52.329Z,99440.68
2023-03-31T02:31:26.372Z,99439.05
2023-03-31T02:34:03.062Z,99434.60
2023-03-31T02:36:53.260Z,99423.53
2023-03-31T02:39:24.213Z,99423.80
2023-03-31T02:41:52.810Z,99421.28
2023-03-31T02:44:19.120Z,99427.72
2023-03-31T02:46:56.342Z,99419.30
2023-03-31T02:49:23.208Z,99417.84
2023-03-31T02:52:01.579Z,99415.63
2023-03-31T02:55:12.835Z,99416.91
2023-03-31T02:58:09.778Z,99416.30
2023-03-31T03:01:05.402Z,99421.00
2023-03-31T03:03:57.790Z,99420.91
2023-03-31T03:07:12.085Z,99420.38
2023-03-31T03:08:28.731Z,99425.42
2023-03-31T03:11:24.797Z,99414.39
2023-03-31T03:12:40.826Z,99427.55
2023-03-31T03:15:34.825Z,99425.68
2023-03-31T03:18:07.415Z,99421.55
2023-03-31T03:20:40.901Z,99424.30
2023-03-31T03:21:51.260Z,99437.22
2023-03-31T03:23:00.552Z,99423.84
2023-03-31T03:25:25.320Z,99417.08
2023-03-31T03:26:35.790Z,99421.27
2023-03-31T03:27:44.824Z,99416.03
2023-03-31T03:28:55.644Z,99417.81
2023-03-31T03:30:06.219Z,99417.81
2023-03-31T03:31:16.300Z,99418.75
2023-03-31T03:32:25.724Z,99409.92
2023-03-31T03:34:49.960Z,99388.10
2023-03-31T03:35:59.114Z,99402.88
2023-03-31T03:37:08.250Z,99398.45
2023-03-31T03:39:32.796Z,99392.70
2023-03-31T03:41:58.717Z,99390.14
2023-03-31T03:43:07.815Z,99388.92
2023-03-31T03:45:35.301Z,99393.50
2023-03-31T03:46:44.693Z,99396.64
2023-03-31T03:49:08.886Z,99394.89
2023-03-31T03:51:37.353Z,99401.13
2023-03-31T03:52:46.679Z,99397.34
2023-03-31T03:53:56.454Z,99394.83
2023-03-31T03:56:23.273Z,99380.05
2023-03-31T03:58:48.790Z,99375.52
2023-03-31T03:59:59.392Z,99392.97
2023-03-31T04:02:28.099Z,99381.85
2023-03-31T04:04:53.555Z,99376.45
2023-03-31T04:06:03.897Z,99385.08
2023-03-31T04:08:28.600Z,99375.52
2023-03-31T04:10:52.990Z,99380.66
2023-03-31T04:13:20.161Z,99381.42
2023-03-31T04:14:29.079Z,99388.19
2023-03-31T04:16:57.879Z,99376.98
2023-03-31T04:19:25.552Z,99374.23
2023-03-31T04:21:55.167Z,99371.41
2023-03-31T04:23:05.961Z,99370.20
2023-03-31T04:24:17.338Z,99366.58
2023-03-31T04:26:45.769Z,99374.51
2023-03-31T04:29:12.347Z,99368.16
2023-03-31T04:31:44.531Z,99357.44
2023-03-31T04:33:03.496Z,99365.91
2023-03-31T04:34:16.355Z,99362.33
2023-03-31T04:35:28.694Z,99363.25
2023-03-31T04:37:57.790Z,99363.78
2023-03-31T04:40:25.907Z,99352.21
2023-03-31T04:42:51.576Z,99349.38
2023-03-31T04:44:00.718Z,99353.50
2023-03-31T04:46:28.765Z,99352.80
2023-03-31T04:47:38.835Z,99353.41
2023-03-31T04:48:50.845Z,99354.44
2023-03-31T04:51:35.656Z,99349.29
2023-03-31T04:54:01.308Z,99349.29
2023-03-31T04:55:11.141Z,99345.52
2023-03-31T04:56:22.824Z,99352.53
2023-03-31T04:57:31.679Z,99338.39
2023-03-31T04:58:41.044Z,99343.63
2023-03-31T05:01:06.638Z,99338.47
2023-03-31T05:03:34.196Z,99333.06
2023-03-31T05:04:43.837Z,99335.30
2023-03-31T05:07:10.777Z,99332.65
2023-03-31T05:09:36.601Z,99329.72
2023-03-31T05:10:45.510Z,99336.42
2023-03-31T05:11:55.566Z,99325.70
2023-03-31T05:14:20.856Z,99325.61
2023-03-31T05:16:44.681Z,99325.43
2023-03-31T05:17:54.944Z,99338.31
2023-03-31T05:20:21.046Z,99321.56
2023-03-31T05:21:31.914Z,99326.55
2023-03-31T05:22:43.714Z,99326.55
2023-03-31T05:23:53.068Z,99318.56
2023-03-31T05:25:04.478Z,99322.86
2023-03-31T05:27:31.420Z,99315.02
2023-03-31T05:28:41.581Z,99317.27
2023-03-31T05:29:50.953Z,99306.53
2023-03-31T05:32:18.354Z,99308.39
2023-03-31T05:34:45.868Z,99302.98
2023-03-31T05:35:56.425Z,99303.53
2023-03-31T05:37:05.368Z,99300.69
2023-03-31T05:39:31.534Z,99283.82
2023-03-31T05:41:57.623Z,99291.62
2023-03-31T05:44:21.895Z,99285.17
2023-03-31T05:45:31.000Z,99290.27
2023-03-31T05:47:57.901Z,99289.73
2023-03-31T05:50:23.783Z,99274.80
2023-03-31T05:51:32.772Z,99285.13
2023-03-31T05:53:58.519Z,99277.37
2023-03-31T05:56:26.809Z,99273.08
2023-03-31T05:58:52.316Z,99269.77
2023-03-31T06:41:59.380Z,99226.74
2023-03-31T06:44:26.056Z,99212.45
2023-03-31T06:45:37.413Z,99220.24
2023-03-31T06:48:01.572Z,99210.48
2023-03-31T06:50:26.716Z,99204.86
2023-03-31T06:52:55.198Z,99209.83
2023-03-31T06:55:21.189Z,99209.53
2023-03-31T06:56:30.623Z,99214.77
2023-03-31T06:57:40.291Z,99223.69
2023-03-31T07:00:07.656Z,99223.14
2023-03-31T07:02:32.696Z,99228.27
2023-03-31T07:04:56.906Z,99222.39
2023-03-31T07:06:06.434Z,99227.13
2023-03-31T07:08:31.659Z,99218.02
2023-03-31T07:09:41.906Z,99216.86
2023-03-31T07:12:13.137Z,99217.85
2023-03-31T07:13:21.772Z,99219.36
2023-03-31T07:15:48.374Z,99209.56
2023-03-31T07:16:58.431Z,99210.13
2023-03-31T07:19:24.406Z,99196.03
2023-03-31T07:21:50.790Z,99200.22
2023-03-31T07:24:16.332Z,99197.25
2023-03-31T07:26:41.553Z,99196.98
2023-03-31T07:27:51.880Z,99194.05
2023-03-31T07:30:18.590Z,99188.88
2023-03-31T07:31:27.558Z,99192.13
2023-03-31T07:33:54.611Z,99186.69
2023-03-31T07:36:18.666Z,99186.58
2023-03-31T07:38:46.474Z,99179.53
2023-03-31T07:42:30.731Z,99173.78
2023-03-31T07:43:40.255Z,99177.81
2023-03-31T07:45:57.879Z,99172.30
2023-03-31T07:47:07.888Z,99185.53
2023-03-31T07:49:35.562Z,99172.05
2023-03-31T07:52:01.407Z,99169.06
2023-03-31T07:54:27.806Z,99167.42
2023-03-31T07:56:53.345Z,99170.53
2023-03-31T07:59:18.033Z,99166.39
2023-03-31T08:00:28.702Z,99167.77
2023-03-31T08:01:38.026Z,99176.33
2023-03-31T08:04:04.501Z,99161.63
2023-03-31T08:06:31.941Z,99156.84
2023-03-31T08:09:07.469Z,99154.80
2023-03-31T08:10:20.648Z,99161.53
2023-03-31T08:11:29.769Z,99161.42
2023-03-31T08:12:38.974Z,99154.18
2023-03-31T08:15:04.314Z,99151.00
2023-03-31T08:16:13.752Z,99153.97
2023-03-31T08:18:38.870Z,99146.61
2023-03-31T08:21:07.289Z,99144.16
2023-03-31T08:22:17.149Z,99155.39
2023-03-31T08:24:41.228Z,99144.17
2023-03-31T08:27:11.989Z,99142.33
2023-03-31T08:28:18.398Z,99139.11
2023-03-31T08:30:42.294Z,99123.51
2023-03-31T08:31:51.068Z,99119.46
2023-03-31T08:34:14.954Z,99119.49
2023-03-31T08:35:23.769Z,99130.73
2023-03-31T08:37:48.039Z,99121.39
2023-03-31T08:40:17.605Z,99118.13
2023-03-31T08:43:02.131Z,99119.13
2023-03-31T08:45:48.552Z,99109.68
2023-03-31T08:51:10.478Z,99106.33
2023-03-31T08:53:42.824Z,99110.95
2023-03-31T08:56:20.370Z,99107.09
2023-03-31T08:58:59.141Z,99114.27
2023-03-31T09:01:56.678Z,99101.74
2023-03-31T09:04:50.258Z,99101.63
2023-03-31T09:07:27.886Z,99098.22
2023-03-31T09:08:42.319Z,99102.50
2023-03-31T09:14:48.245Z,99085.02
2023-03-31T09:17:37.771Z,99084.54
2023-03-31T09:18:48.628Z,99091.44
2023-03-31T09:21:30.776Z,99086.13
2023-03-31T09:24:09.269Z,99079.58
2023-03-31T09:28:16.022Z,99076.55
2023-03-31T09:31:16.538Z,99062.92
2023-03-31T09:33:48.523Z,99080.58
2023-03-31T09:36:23.452Z,99065.99
2023-03-31T09:38:52.048Z,99064.79
2023-03-31T09:41:22.279Z,99060.78
2023-03-31T09:42:31.769Z,99059.67
2023-03-31T09:44:58.972Z,99054.85
2023-03-31T09:47:45.038Z,99044.73
2023-03-31T09:48:57.870Z,99049.86
2023-03-31T09:51:26.976Z,99043.19
2023-03-31T09:52:45.794Z,99041.09
2023-03-31T09:55:40.567Z,99036.12
2023-03-31T09:58:14.647Z,99024.95
2023-03-31T10:01:07.259Z,99034.78
2023-03-31T10:03:57.943Z,99031.52
2023-03-31T10:06:26.393Z,99025.42
2023-03-31T10:07:36.020Z,99024.31
2023-03-31T10:12:01.738Z,99011.04
2023-03-31T10:14:46.639Z,99015.89
2023-03-31T10:17:26.016Z,99009.79
2023-03-31T10:20:01.246Z,99004.17
2023-03-31T10:22:44.019Z,99002.20
2023-03-31T10:25:16.601Z,98995.87
2023-03-31T10:27:49.291Z,99000.88
2023-03-31T10:30:17.462Z,98995.96
2023-03-31T10:32:46.316Z,98996.09
2023-03-31T10:35:26.388Z,98987.55
2023-03-31T10:36:36.064Z,98997.94
2023-03-31T10:39:01.679Z,98994.81
2023-03-31T10:41:33.564Z,98988.22
2023-03-31T10:44:03.977Z,98989.09
2023-03-31T10:46:53.460Z,98982.98
2023-03-31T10:49:25.359Z,98979.59
2023-03-31T10:52:23.214Z,98982.98
2023-03-31T10:55:01.430Z,98982.98
2023-03-31T10:57:40.798Z,98972.39
2023-03-31T11:00:33.845Z,98968.87
2023-03-31T11:03:32.390Z,98970.89
2023-03-31T11:06:14.186Z,98963.81
2023-03-31T11:10:46.820Z,98961.38
2023-03-31T11:13:33.838Z,98963.16
2023-03-31T11:16:32.562Z,98948.91
2023-03-31T11:21:01.023Z,98941.76
2023-03-31T11:22:20.759Z,98953.03
2023-03-31T11:23:43.601Z,98951.05
2023-03-31T11:25:01.614Z,98954.60
2023-03-31T11:27:59.173Z,98948.56
2023-03-31T11:31:05.538Z,98948.56
2023-03-31T11:32:52.403Z,98947.66
2023-03-31T11:36:01.506Z,98937.12
2023-03-31T11:38:45.796Z,98937.27
2023-03-31T11:41:39.472Z,98932.03
2023-03-31T11:44:24.862Z,98929.59
2023-03-31T11:50:05.557Z,98929.21
2023-03-31T11:52:42.655Z,98921.73
2023-03-31T11:55:21.459Z,98919.92
2023-03-31T11:58:01.319Z,98912.84
2023-03-31T11:59:15.487Z,98923.66
2023-03-31T12:02:31.160Z,98907.61
2023-03-31T12:05:05.475Z,98898.31
2023-03-31T12:06:21.178Z,98909.69
2023-03-31T12:09:07.670Z,98900.77
2023-03-31T12:12:07.515Z,98896.84
2023-03-31T12:15:05.611Z,98883.14
2023-03-31T12:17:44.501Z,98887.99
2023-03-31T12:20:52.558Z,98881.75
2023-03-31T12:22:08.539Z,98888.05
2023-03-31T12:24:44.447Z,98881.89
2023-03-31T12:27:22.119Z,98879.63
2023-03-31T12:28:33.313Z,98878.70
2023-03-31T12:30:01.427Z,98875.05
2023-03-31T12:32:38.858Z,98865.78
2023-03-31T12:35:14.950Z,98870.17
2023-03-31T12:38:05.908Z,98866.37
2023-03-31T12:41:07.314Z,98851.84
2023-03-31T12:44:09.487Z,98843.50
2023-03-31T12:47:11.009Z,98839.11
2023-03-31T12:50:16.579Z,98845.23
2023-03-31T12:53:25.433Z,98839.28
2023-03-31T12:56:12.805Z,98833.63
2023-03-31T12:57:24.196Z,98839.84
2023-03-31T13:00:24.429Z,98827.87
2023-03-31T13:02:50.572Z,98825.19
2023-03-31T13:04:09.831Z,98825.86
2023-03-31T13:06:59.096Z,98830.83
2023-03-31T13:09:46.612Z,98830.83
2023-03-31T13:12:20.608Z,98827.45
2023-03-31T13:14:48.422Z,98824.76
2023-03-31T13:16:00.468Z,98825.02
2023-03-31T13:18:36.569Z,98813.88
2023-03-31T13:23:52.204Z,98808.36
2023-03-31T13:25:31.647Z,98813.02
2023-03-31T13:26:45.212Z,98807.36
2023-03-31T13:29:17.481Z,98803.13
2023-03-31T13:32:05.872Z,98792.53
2023-03-31T13:34:52.508Z,98797.17
2023-03-31T13:37:34.106Z,98794.23
2023-03-31T13:40:21.525Z,98788.42
2023-03-31T13:43:23.655Z,98786.86
2023-03-31T13:46:27.131Z,98784.33
2023-03-31T13:49:27.858Z,98773.30
2023-03-31T13:52:04.761Z,98775.45
2023-03-31T13:55:17.801Z,98787.17
2023-03-31T13:58:59.600Z,98781.08
2023-03-31T14:01:52.241Z,98782.37
2023-03-31T14:03:22.551Z,98783.59
2023-03-31T14:04:39.984Z,98783.59
2023-03-31T14:07:59.155Z,98774.99
2023-03-31T14:09:15.246Z,98775.13
2023-03-31T14:11:52.327Z,98773.44
2023-03-31T14:14:35.966Z,98772.59
2023-03-31T14:17:11.085Z,98772.31
2023-03-31T14:18:35.252Z,98775.81
2023-03-31T14:21:21.485Z,98769.91
2023-03-31T14:24:40.936Z,98753.52
2023-03-31T14:27:34.369Z,98765.39
2023-03-31T14:30:30.017Z,98767.53
2023-03-31T14:35:04.211Z,98763.58
2023-03-31T14:37:57.563Z,98769.50
2023-03-31T14:40:25.886Z,98756.50
2023-03-31T14:42:55.153Z,98765.11
2023-03-31T14:45:30.927Z,98763.58
2023-03-31T14:46:40.558Z,98777.00
2023-03-31T14:49:22.987Z,98767.38
2023-03-31T14:51:54.288Z,98765.50
2023-03-31T14:54:22.116Z,98767.35
2023-03-31T14:56:58.081Z,98767.05
2023-03-31T14:59:34.417Z,98767.88
2023-03-31T15:00:46.036Z,98777.76
2023-03-31T15:01:57.863Z,98781.56
2023-03-31T15:04:41.988Z,98774.06
2023-03-31T15:07:02.009Z,98774.06
2023-03-31T15:09:39.158Z,98775.47
2023-03-31T15:12:17.357Z,98772.78
2023-03-31T15:14:01.072Z,98774.73
2023-03-31T15:16:38.933Z,98769.05
2023-03-31T15:19:07.023Z,98775.98
2023-03-31T15:21:48.847Z,98774.14
2023-03-31T15:24:10.732Z,98779.71
2023-03-31T15:28:17.532Z,98778.73
2023-03-31T15:29:45.536Z,98784.13
2023-03-31T15:32:31.992Z,98783.75
2023-03-31T15:35:04.766Z,98782.53
2023-03-31T15:36:12.056Z,98790.50
2023-03-31T15:38:58.104Z,98787.48
2023-03-31T15:41:36.773Z,98784.80
2023-03-31T15:44:29.663Z,98791.73
2023-03-31T15:47:21.644Z,98789.33
2023-03-31T15:49:56.510Z,98781.34
2023-03-31T15:52:39.334Z,98784.13
2023-03-31T15:55:28.129Z,98793.04
2023-03-31T15:58:01.558Z,98789.63
2023-03-31T16:03:47.870Z,98779.91
2023-03-31T16:06:37.171Z,98783.42
2023-03-31T16:07:46.731Z,98789.58
2023-03-31T16:09:06.460Z,98787.77
2023-03-31T16:11:42.543Z,98785.00
2023-03-31T16:15:48.918Z,98782.83
2023-03-31T16:18:32.212Z,98787.49
2023-03-31T16:21:04.340Z,98783.10
2023-03-31T16:23:40.914Z,98789.44
2023-03-31T16:24:51.097Z,98795.75
2023-03-31T16:27:17.382Z,98787.90
2023-03-31T16:29:46.124Z,98792.06
2023-03-31T16:32:18.903Z,98789.52
2023-03-31T16:34:58.206Z,98791.63
2023-03-31T16:36:08.926Z,98799.02
2023-03-31T16:38:33.711Z,98792.00
2023-03-31T16:41:00.630Z,98795.63
2023-03-31T16:43:34.438Z,98793.98
2023-03-31T16:46:03.730Z,98790.56
2023-03-31T16:48:34.938Z,98788.02
2023-03-31T16:51:01.865Z,98788.73
2023-03-31T16:53:30.655Z,98792.67
2023-03-31T16:54:39.296Z,98793.09
2023-03-31T16:55:49.348Z,98794.33
2023-03-31T16:58:16.079Z,98795.64
2023-03-31T17:00:42.998Z,98793.36
2023-03-31T17:03:09.394Z,98795.69
2023-03-31T17:04:20.150Z,98800.22
2023-03-31T17:06:48.099Z,98795.56
2023-03-31T17:09:14.596Z,98799.81
2023-03-31T17:11:39.137Z,98801.05
2023-03-31T17:12:48.318Z,98802.20
2023-03-31T17:15:13.106Z,98798.90
2023-03-31T17:16:29.438Z,98802.58
2023-03-31T17:17:35.175Z,98797.36
2023-03-31T17:20:01.194Z,98789.20
2023-03-31T17:21:13.008Z,98799.20
2023-03-31T17:22:22.692Z,98797.63
2023-03-31T17:24:49.283Z,98794.11
2023-03-31T17:27:13.045Z,98804.59
2023-03-31T17:28:23.062Z,98803.61
2023-03-31T17:30:50.241Z,98797.39
2023-03-31T17:33:17.416Z,98796.42
2023-03-31T17:35:43.587Z,98790.33
2023-03-31T17:36:54.772Z,98805.58
2023-03-31T17:38:04.424Z,98802.06
2023-03-31T17:40:28.153Z,98804.36
2023-03-31T17:42:52.912Z,98799.13
2023-03-31T17:45:18.222Z,98795.71
2023-03-31T17:46:28.472Z,98801.08
2023-03-31T17:48:56.924Z,98791.58
2023-03-31T17:51:24.310Z,98789.28
2023-03-31T17:53:49.421Z,98792.09
2023-03-31T17:56:15.490Z,98785.16
2023-03-31T17:58:40.740Z,98790.14
2023-03-31T18:01:08.019Z,98786.14
2023-03-31T18:03:32.559Z,98783.59
2023-03-31T18:04:41.505Z,98791.75
2023-03-31T18:07:06.670Z,98777.88
2023-03-31T18:08:15.388Z,98791.22
2023-03-31T18:09:26.685Z,98788.80
2023-03-31T18:10:37.889Z,98790.73
2023-03-31T18:11:46.763Z,98790.73
2023-03-31T18:14:10.442Z,98791.13
2023-03-31T18:16:36.632Z,98777.85
2023-03-31T18:17:45.885Z,98784.16
2023-03-31T18:20:12.463Z,98784.41
2023-03-31T18:22:40.140Z,98777.48
2023-03-31T18:25:08.770Z,98779.44
2023-03-31T18:27:33.537Z,98781.98
2023-03-31T18:28:42.713Z,98782.45
2023-03-31T18:31:09.382Z,98774.95
2023-03-31T18:33:34.833Z,98778.45
2023-03-31T18:35:58.755Z,98776.85
2023-03-31T18:38:22.640Z,98777.92
2023-03-31T18:40:51.462Z,98768.44
2023-03-31T18:43:26.901Z,98768.08
2023-03-31T18:44:36.465Z,98773.72
2023-03-31T18:45:50.020Z,98775.66
2023-03-31T18:48:14.158Z,98762.77
2023-03-31T18:49:24.193Z,98771.78
2023-03-31T18:50:34.024Z,98769.23
2023-03-31T18:51:42.621Z,98768.39
2023-03-31T18:54:08.093Z,98763.38
2023-03-31T18:56:36.285Z,98767.14
2023-03-31T18:59:01.948Z,98755.73
2023-03-31T19:00:12.046Z,98760.36
2023-03-31T19:02:36.386Z,98756.23
2023-03-31T19:03:47.635Z,98759.39
2023-03-31T19:04:56.733Z,98761.20
2023-03-31T19:06:11.672Z,98760.09
2023-03-31T19:08:36.558Z,98761.55
2023-03-31T19:09:46.562Z,98762.20
2023-03-31T19:12:21.697Z,98752.63
2023-03-31T19:13:30.764Z,98759.74
2023-03-31T19:15:55.701Z,98756.67
2023-03-31T19:17:05.293Z,98754.88
2023-03-31T19:18:15.214Z,98758.08
2023-03-31T19:19:24.359Z,98757.20
2023-03-31T19:21:48.957Z,98760.50
2023-03-31T19:22:58.693Z,98756.98
2023-03-31T19:25:25.039Z,98749.05
2023-03-31T19:26:33.746Z,98753.34
2023-03-31T19:29:01.783Z,98742.36
2023-03-31T19:30:17.896Z,98743.69
2023-03-31T19:31:27.529Z,98748.42
2023-03-31T19:33:51.951Z,98744.48
2023-03-31T19:36:17.435Z,98738.68
2023-03-31T19:38:42.057Z,98741.23
2023-03-31T19:41:07.460Z,98740.42
2023-03-31T19:43:33.356Z,98752.65
2023-03-31T19:46:01.076Z,98751.68
2023-03-31T19:48:30.443Z,98743.51
2023-03-31T19:50:57.932Z,98724.89
2023-03-31T19:52:06.856Z,98742.00
2023-03-31T19:54:30.396Z,98733.56
2023-03-31T19:56:56.471Z,98735.20
2023-03-31T19:59:22.457Z,98739.24
2023-03-31T20:00:32.306Z,98738.33
2023-03-31T20:02:56.394Z,98740.62
2023-03-31T20:04:06.521Z,98741.02
2023-03-31T20:06:32.863Z,98737.30
2023-03-31T20:09:00.216Z,98733.90
2023-03-31T20:11:28.782Z,98732.84
2023-03-31T20:13:54.854Z,98735.25
2023-03-31T20:16:21.849Z,98735.63
2023-03-31T20:17:31.494Z,98732.47
2023-03-31T20:19:59.030Z,98734.82
2023-03-31T20:22:27.695Z,98741.09
2023-03-31T20:23:38.010Z,98750.91
2023-03-31T20:26:02.882Z,98731.41
2023-03-31T20:27:12.473Z,98744.23
2023-03-31T20:29:36.540Z,98741.86
2023-03-31T20:32:08.484Z,98746.72
2023-03-31T20:34:33.580Z,98738.36
2023-03-31T20:35:42.648Z,98740.10
2023-03-31T20:36:51.985Z,98743.80
2023-03-31T20:39:19.277Z,98734.73
2023-03-31T20:41:44.282Z,98739.38
2023-03-31T20:44:14.297Z,98743.00
2023-03-31T20:46:37.831Z,98735.33
2023-03-31T20:49:03.610Z,98740.77
2023-03-31T20:51:32.397Z,98735.30
2023-03-31T20:52:43.041Z,98733.73
2023-03-31T20:55:09.868Z,98736.23
2023-03-31T20:57:48.012Z,98732.56
2023-03-31T21:00:15.821Z,98735.12
2023-03-31T21:01:30.188Z,98743.26
2023-03-31T21:02:39.875Z,98741.69
2023-03-31T21:05:06.382Z,98741.30
2023-03-31T21:06:16.868Z,98738.73
2023-03-31T21:08:44.923Z,98741.77
2023-03-31T21:11:10.116Z,98735.39
2023-03-31T21:12:19.700Z,98747.55
2023-03-31T21:14:47.090Z,98735.84
2023-03-31T21:17:13.899Z,98732.47
2023-03-31T21:19:38.081Z,98737.25
2023-03-31T21:22:08.772Z,98742.45
2023-03-31T21:24:52.990Z,98739.76
2023-03-31T21:26:04.550Z,98740.02
2023-03-31T21:27:14.592Z,98737.03
2023-03-31T21:29:44.157Z,98736.44
2023-03-31T21:30:59.669Z,98744.88
2023-03-31T21:33:25.677Z,98734.84
2023-03-31T21:35:49.518Z,98731.19
2023-03-31T21:36:58.986Z,98732.72
2023-03-31T21:39:25.038Z,98732.80
2023-03-31T21:41:51.984Z,98732.69
2023-03-31T21:44:16.960Z,98726.94
2023-03-31T21:46:42.519Z,98722.70
2023-03-31T21:49:07.773Z,98715.18
2023-03-31T21:50:17.300Z,98717.30
2023-03-31T21:52:42.075Z,98713.34
2023-03-31T21:55:11.818Z,98714.58
2023-03-31T21:56:23.431Z,98714.25
2023-03-31T21:58:47.706Z,98712.99
2023-03-31T21:59:56.784Z,98716.91
2023-03-31T22:02:25.142Z,98707.63
2023-03-31T22:04:50.525Z,98706.78
2023-03-31T22:07:21.109Z,98707.10
2023-03-31T22:09:47.411Z,98719.41
2023-03-31T22:11:00.892Z,98719.95
2023-03-31T22:13:26.953Z,98718.10
2023-03-31T22:15:52.777Z,98720.73
2023-03-31T22:18:18.014Z,98719.20
2023-03-31T22:20:41.966Z,98724.80
2023-03-31T22:21:51.646Z,98723.88
2023-03-31T22:24:16.554Z,98720.17
2023-03-31T22:26:41.802Z,98713.14
2023-03-31T22:27:51.115Z,98726.23
2023-03-31T22:30:15.492Z,98719.58
2023-03-31T22:32:41.129Z,98724.25
2023-03-31T22:35:06.750Z,98722.16
2023-03-31T22:37:31.071Z,98720.21
2023-03-31T22:39:56.224Z,98719.03
2023-03-31T22:42:22.299Z,98714.64
2023-03-31T22:44:49.802Z,98713.48
2023-03-31T22:47:20.415Z,98708.30
2023-03-31T22:49:47.209Z,98705.61
2023-03-31T22:52:13.261Z,98707.84
2023-03-31T22:53:23.211Z,98718.88
2023-03-31T22:55:53.905Z,98707.50
2023-03-31T22:58:14.956Z,98717.13
2023-03-31T23:00:40.926Z,98713.80
2023-03-31T23:01:55.734Z,98711.77
2023-03-31T23:03:05.661Z,98716.30
2023-03-31T23:05:31.984Z,98703.15
2023-03-31T23:06:41.983Z,98711.30
2023-03-31T23:09:08.188Z,98703.98
2023-03-31T23:11:33.764Z,98703.98
2023-03-31T23:12:42.994Z,98705.80
2023-03-31T23:13:53.336Z,98704.41
2023-03-31T23:16:23.932Z,98706.65
2023-03-31T23:18:52.339Z,98706.89
2023-03-31T23:21:22.894Z,98706.89
2023-03-31T23:24:11.334Z,98704.78
2023-03-31T23:26:36.647Z,98711.72
2023-03-31T23:29:01.549Z,98699.94
2023-03-31T23:31:30.373Z,98700.22
2023-03-31T23:32:40.082Z,98702.42
2023-03-31T23:35:08.722Z,98708.13
2023-03-31T23:37:38.173Z,98716.70
2023-03-31T23:40:05.920Z,98715.88
2023-03-31T23:42:32.840Z,98720.39
2023-03-31T23:44:57.038Z,98718.69
2023-03-31T23:46:07.898Z,98729.07
2023-03-31T23:48:37.235Z,98726.53
2023-03-31T23:51:03.019Z,98726.72
2023-03-31T23:52:12.665Z,98733.19
2023-03-31T23:53:22.490Z,98730.78
2023-03-31T23:55:58.542Z,98723.07
2023-03-31T23:57:08.084Z,98719.53
2023-03-31T23:58:17.918Z,98725.73
